createdAt,value
2019-03-31T00:00:13.940Z,6.50
2019-03-31T00:02:40.156Z,6.40
2019-03-31T00:05:06.485Z,6.40
2019-03-31T00:07:32.574Z,6.40
2019-03-31T00:09:58.702Z,6.50
2019-03-31T00:12:24.833Z,6.60
2019-03-31T00:14:51.126Z,6.30
2019-03-31T00:17:17.234Z,6.40
2019-03-31T00:19:43.372Z,6.50
2019-03-31T00:22:09.550Z,6.70
2019-03-31T00:24:35.708Z,6.60
2019-03-31T00:27:01.859Z,6.50
2019-03-31T00:29:28.159Z,6.60
2019-03-31T00:31:54.224Z,6.50
2019-03-31T00:34:20.392Z,6.40
2019-03-31T00:36:46.456Z,6.50
2019-03-31T00:39:12.568Z,6.50
2019-03-31T00:41:38.783Z,6.60
2019-03-31T00:44:04.881Z,6.60
2019-03-31T00:46:31.030Z,6.60
2019-03-31T00:48:57.228Z,6.60
2019-03-31T00:51:23.332Z,6.60
2019-03-31T00:53:49.444Z,6.50
2019-03-31T00:56:15.636Z,6.30
2019-03-31T00:58:41.726Z,6.30
2019-03-31T01:01:10.378Z,6.30
2019-03-31T01:03:36.644Z,6.50
2019-03-31T01:06:03.813Z,6.30
2019-03-31T01:08:32.655Z,6.30
2019-03-31T01:11:00.536Z,6.40
2019-03-31T01:13:27.138Z,6.30
2019-03-31T01:15:56.126Z,6.30
2019-03-31T01:18:22.780Z,6.20
2019-03-31T01:20:48.971Z,6.20
2019-03-31T01:23:15.133Z,6.20
2019-03-31T01:25:41.311Z,6.20
2019-03-31T01:28:07.695Z,6.10
2019-03-31T01:30:34.000Z,6.10
2019-03-31T01:33:00.687Z,6.10
2019-03-31T01:35:26.779Z,6.20
2019-03-31T01:37:52.926Z,6.10
2019-03-31T01:40:19.274Z,6.20
2019-03-31T01:42:45.375Z,6.10
2019-03-31T01:45:11.925Z,5.80
2019-03-31T01:47:38.063Z,5.70
2019-03-31T01:50:07.946Z,5.70
2019-03-31T01:52:34.021Z,5.80
2019-03-31T01:55:00.343Z,5.70
2019-03-31T01:57:26.575Z,5.70
2019-03-31T01:59:52.706Z,5.70
2019-03-31T02:02:24.254Z,5.50
2019-03-31T02:04:50.465Z,5.30
2019-03-31T02:07:16.651Z,5.30
2019-03-31T02:09:42.731Z,5.30
2019-03-31T02:12:08.913Z,5.30
2019-03-31T02:14:35.070Z,5.30
2019-03-31T02:17:01.373Z,5.30
2019-03-31T02:19:27.667Z,5.30
2019-03-31T02:21:54.147Z,5.20
2019-03-31T02:24:20.231Z,5.20
2019-03-31T02:26:46.337Z,5.10
2019-03-31T02:29:12.478Z,5.10
2019-03-31T02:31:38.778Z,5.20
2019-03-31T02:34:05.103Z,5.30
2019-03-31T02:36:31.247Z,5.30
2019-03-31T02:38:57.346Z,5.30
2019-03-31T02:41:23.411Z,5.30
2019-03-31T02:43:49.578Z,5.30
2019-03-31T02:46:15.801Z,5.30
2019-03-31T02:48:41.978Z,5.20
2019-03-31T02:51:08.054Z,5.20
2019-03-31T02:53:34.304Z,5.20
2019-03-31T02:56:00.507Z,5.20
2019-03-31T02:58:26.726Z,5.10
2019-03-31T03:00:53.377Z,5.30
2019-03-31T03:03:19.667Z,5.40
2019-03-31T03:05:46.376Z,5.30
2019-03-31T03:08:13.309Z,5.00
2019-03-31T03:10:41.927Z,4.80
2019-03-31T03:13:08.780Z,4.90
2019-03-31T03:15:57.012Z,4.80
2019-03-31T03:18:23.288Z,4.60
2019-03-31T03:20:49.520Z,4.50
2019-03-31T03:23:15.918Z,4.50
2019-03-31T03:25:54.949Z,4.60
2019-03-31T03:28:10.175Z,4.40
2019-03-31T03:30:36.455Z,4.40
2019-03-31T03:33:14.977Z,4.10
2019-03-31T03:35:30.912Z,4.10
2019-03-31T03:37:57.007Z,4.00
2019-03-31T03:40:23.202Z,4.00
2019-03-31T03:42:49.331Z,4.00
2019-03-31T03:45:15.414Z,4.00
2019-03-31T03:47:41.481Z,4.20
2019-03-31T03:50:07.578Z,4.20
2019-03-31T03:52:33.727Z,4.30
2019-03-31T03:54:59.923Z,4.30
2019-03-31T03:57:26.010Z,4.20
2019-03-31T03:59:52.143Z,4.10
2019-03-31T04:02:18.317Z,4.10
2019-03-31T04:04:44.405Z,4.30
2019-03-31T04:07:10.538Z,4.20
2019-03-31T04:09:36.609Z,4.30
2019-03-31T04:12:03.070Z,4.20
2019-03-31T04:14:29.304Z,4.20
2019-03-31T04:16:55.493Z,4.00
2019-03-31T04:19:21.625Z,4.00
2019-03-31T04:21:47.723Z,3.90
2019-03-31T04:24:13.827Z,4.00
2019-03-31T04:26:39.969Z,4.00
2019-03-31T04:29:06.092Z,4.00
2019-03-31T04:31:32.331Z,3.80
2019-03-31T04:33:58.523Z,3.80
2019-03-31T04:36:24.739Z,3.70
2019-03-31T04:38:51.021Z,3.60
2019-03-31T04:41:17.137Z,3.70
2019-03-31T04:43:43.403Z,3.70
2019-03-31T04:46:09.675Z,3.80
2019-03-31T04:48:35.791Z,3.70
2019-03-31T04:51:02.174Z,3.70
2019-03-31T04:53:28.316Z,3.60
2019-03-31T04:55:54.551Z,3.70
2019-03-31T04:58:20.741Z,3.80
2019-03-31T05:00:46.952Z,3.90
2019-03-31T05:03:13.033Z,4.00
2019-03-31T05:05:39.139Z,4.10
2019-03-31T05:08:05.220Z,4.10
2019-03-31T05:10:31.366Z,4.10
2019-03-31T05:12:57.853Z,4.10
2019-03-31T05:15:24.022Z,4.00
2019-03-31T05:17:50.156Z,3.90
2019-03-31T05:20:16.277Z,3.90
2019-03-31T05:22:42.473Z,3.80
2019-03-31T05:25:08.759Z,3.80
2019-03-31T05:27:34.899Z,3.80
2019-03-31T05:30:01.018Z,3.90
2019-03-31T05:32:27.210Z,3.80
2019-03-31T05:34:53.324Z,3.90
2019-03-31T05:37:19.474Z,4.10
2019-03-31T05:39:45.750Z,4.30
2019-03-31T05:42:11.880Z,4.40
2019-03-31T05:44:38.116Z,4.50
2019-03-31T05:47:04.194Z,4.60
2019-03-31T05:49:30.327Z,4.50
2019-03-31T05:51:56.390Z,4.60
2019-03-31T05:54:22.500Z,4.80
2019-03-31T05:56:48.566Z,4.80
2019-03-31T05:59:14.690Z,5.00
2019-03-31T06:01:40.790Z,5.10
2019-03-31T06:04:06.858Z,5.20
2019-03-31T06:06:32.968Z,5.40
2019-03-31T06:08:59.094Z,5.40
2019-03-31T06:11:25.234Z,5.50
2019-03-31T06:13:51.347Z,5.50
2019-03-31T06:16:17.650Z,5.60
2019-03-31T06:18:43.730Z,5.70
2019-03-31T06:21:09.856Z,5.70
2019-03-31T06:23:36.034Z,5.80
2019-03-31T06:26:02.274Z,5.90
2019-03-31T06:28:28.376Z,6.10
2019-03-31T06:30:54.561Z,6.30
2019-03-31T06:33:20.832Z,6.20
2019-03-31T06:35:47.005Z,6.20
2019-03-31T06:38:13.175Z,6.30
2019-03-31T06:40:40.916Z,6.40
2019-03-31T06:43:07.133Z,6.40
2019-03-31T06:45:33.269Z,6.50
2019-03-31T06:47:59.362Z,6.50
2019-03-31T06:50:25.466Z,6.70
2019-03-31T06:52:51.584Z,6.80
2019-03-31T06:55:17.762Z,6.80
2019-03-31T06:57:43.894Z,6.90
2019-03-31T07:00:11.727Z,7.10
2019-03-31T07:02:37.813Z,7.20
2019-03-31T07:05:05.782Z,7.50
2019-03-31T07:07:31.933Z,7.70
2019-03-31T07:09:58.108Z,7.90
2019-03-31T07:12:24.225Z,8.00
2019-03-31T07:14:50.293Z,8.30
2019-03-31T07:17:16.442Z,8.40
2019-03-31T07:19:42.615Z,8.40
2019-03-31T07:22:08.765Z,8.60
2019-03-31T07:24:34.834Z,8.70
2019-03-31T07:27:00.938Z,8.90
2019-03-31T07:29:27.043Z,9.20
2019-03-31T07:31:53.197Z,9.30
2019-03-31T07:34:19.404Z,9.40
2019-03-31T07:36:45.523Z,9.60
2019-03-31T07:39:11.676Z,9.80
2019-03-31T07:41:38.369Z,9.90
2019-03-31T07:44:04.725Z,10.00
2019-03-31T07:46:30.965Z,10.30
2019-03-31T07:48:57.088Z,10.40
2019-03-31T07:51:23.167Z,10.50
2019-03-31T07:53:49.333Z,10.60
2019-03-31T07:56:16.222Z,10.80
2019-03-31T07:58:42.603Z,10.90
2019-03-31T08:01:08.853Z,11.00
2019-03-31T08:03:34.964Z,11.30
2019-03-31T08:06:01.046Z,11.40
2019-03-31T08:08:27.177Z,11.40
2019-03-31T08:10:53.390Z,11.60
2019-03-31T08:13:19.589Z,11.70
2019-03-31T08:15:45.768Z,11.80
2019-03-31T08:18:11.991Z,12.00
2019-03-31T08:20:38.183Z,12.20
2019-03-31T08:23:04.266Z,12.40
2019-03-31T08:25:30.565Z,12.30
2019-03-31T08:27:56.723Z,12.50
2019-03-31T08:30:22.909Z,12.50
2019-03-31T08:32:49.053Z,12.60
2019-03-31T08:35:17.379Z,12.70
2019-03-31T08:37:43.483Z,13.00
2019-03-31T08:40:11.045Z,13.20
2019-03-31T08:42:37.153Z,13.20
2019-03-31T08:45:05.657Z,13.30
2019-03-31T08:47:31.802Z,13.50
2019-03-31T08:49:57.884Z,13.60
2019-03-31T08:52:24.033Z,13.80
2019-03-31T08:54:50.149Z,14.10
2019-03-31T08:57:16.648Z,14.30
2019-03-31T08:59:42.811Z,14.60
2019-03-31T09:02:16.919Z,14.70
2019-03-31T09:04:43.069Z,15.00
2019-03-31T09:07:09.304Z,15.20
2019-03-31T09:09:35.499Z,15.30
2019-03-31T09:12:02.521Z,15.60
2019-03-31T09:14:28.627Z,15.90
2019-03-31T09:16:54.721Z,15.90
2019-03-31T09:19:20.996Z,16.10
2019-03-31T09:21:47.165Z,16.10
2019-03-31T09:24:13.478Z,16.30
2019-03-31T09:26:39.621Z,16.30
2019-03-31T09:29:05.701Z,16.00
2019-03-31T09:31:31.835Z,16.30
2019-03-31T09:33:57.901Z,16.60
2019-03-31T09:36:24.020Z,16.70
2019-03-31T09:38:50.141Z,16.70
2019-03-31T09:41:16.523Z,17.00
2019-03-31T09:43:42.668Z,17.10
2019-03-31T09:46:08.789Z,17.50
2019-03-31T09:48:34.913Z,17.50
2019-03-31T09:51:01.103Z,17.60
2019-03-31T09:53:27.188Z,17.70
2019-03-31T09:55:53.331Z,18.00
2019-03-31T09:58:19.530Z,17.80
2019-03-31T10:00:47.604Z,18.00
2019-03-31T10:03:14.846Z,18.20
2019-03-31T10:05:40.948Z,18.30
2019-03-31T10:08:07.199Z,18.30
2019-03-31T10:10:33.980Z,18.50
2019-03-31T10:13:00.148Z,18.80
2019-03-31T10:15:26.503Z,18.70
2019-03-31T10:17:52.619Z,19.00
2019-03-31T10:20:18.822Z,19.10
2019-03-31T10:22:45.322Z,19.30
2019-03-31T10:25:13.314Z,19.40
2019-03-31T10:27:39.690Z,19.40
2019-03-31T10:30:06.479Z,19.50
2019-03-31T10:32:32.584Z,19.60
2019-03-31T10:34:58.696Z,19.70
2019-03-31T10:37:24.766Z,19.70
2019-03-31T10:39:50.920Z,19.90
2019-03-31T10:42:17.160Z,19.90
2019-03-31T10:44:43.314Z,19.90
2019-03-31T10:47:09.614Z,19.90
2019-03-31T10:49:35.772Z,20.10
2019-03-31T10:52:01.980Z,20.10
2019-03-31T10:54:28.105Z,20.30
2019-03-31T10:56:54.250Z,20.20
2019-03-31T10:59:20.522Z,20.40
2019-03-31T11:01:46.648Z,20.50
2019-03-31T11:04:12.873Z,20.50
2019-03-31T11:06:39.099Z,20.60
2019-03-31T11:09:06.038Z,20.90
2019-03-31T11:11:32.349Z,20.80
2019-03-31T11:13:58.552Z,20.80
2019-03-31T11:16:24.634Z,20.80
2019-03-31T11:18:50.737Z,21.10
2019-03-31T11:21:21.430Z,21.30
2019-03-31T11:23:47.530Z,21.30
2019-03-31T11:26:13.670Z,21.20
2019-03-31T11:28:39.794Z,21.30
2019-03-31T11:31:05.927Z,21.30
2019-03-31T11:33:32.196Z,21.40
2019-03-31T11:35:58.732Z,21.50
2019-03-31T11:38:24.939Z,21.50
2019-03-31T11:40:51.051Z,21.40
2019-03-31T11:43:17.147Z,21.40
2019-03-31T11:45:43.324Z,20.90
2019-03-31T11:48:09.489Z,21.40
2019-03-31T11:50:35.636Z,21.70
2019-03-31T11:53:01.861Z,21.80
2019-03-31T11:55:28.039Z,21.70
2019-03-31T11:57:54.198Z,21.80
2019-03-31T12:00:22.478Z,21.90
2019-03-31T12:02:48.569Z,21.90
2019-03-31T12:05:14.801Z,21.90
2019-03-31T12:07:46.959Z,21.50
2019-03-31T12:10:09.836Z,22.00
2019-03-31T12:12:36.925Z,22.30
2019-03-31T12:15:05.557Z,22.10
2019-03-31T12:17:31.684Z,21.70
2019-03-31T12:19:57.819Z,21.00
2019-03-31T12:22:23.989Z,20.60
2019-03-31T12:24:50.171Z,20.60
2019-03-31T12:27:16.252Z,20.60
2019-03-31T12:29:42.370Z,20.80
2019-03-31T12:32:08.439Z,21.30
2019-03-31T12:34:34.553Z,21.80
2019-03-31T12:37:00.647Z,22.10
2019-03-31T12:39:26.760Z,22.20
2019-03-31T12:41:52.833Z,22.30
2019-03-31T12:44:19.056Z,21.80
2019-03-31T12:46:45.273Z,21.40
2019-03-31T12:49:11.487Z,20.90
2019-03-31T12:51:37.809Z,20.40
2019-03-31T12:54:03.973Z,19.90
2019-03-31T12:56:30.079Z,19.60
2019-03-31T12:58:56.202Z,19.40
2019-03-31T13:01:22.350Z,19.30
2019-03-31T13:03:48.561Z,19.70
2019-03-31T13:06:14.713Z,20.00
2019-03-31T13:08:40.852Z,20.60
2019-03-31T13:11:07.102Z,21.20
2019-03-31T13:13:33.278Z,21.40
2019-03-31T13:15:59.505Z,21.50
2019-03-31T13:18:27.930Z,21.60
2019-03-31T13:20:53.581Z,21.90
2019-03-31T13:23:19.687Z,22.10
2019-03-31T13:25:45.776Z,22.30
2019-03-31T13:28:12.028Z,22.50
2019-03-31T13:30:38.273Z,22.20
2019-03-31T13:33:04.580Z,21.50
2019-03-31T13:35:30.676Z,21.10
2019-03-31T13:38:10.000Z,21.50
2019-03-31T13:40:24.761Z,21.70
2019-03-31T13:42:50.876Z,21.90
2019-03-31T13:45:17.393Z,21.90
2019-03-31T13:47:43.641Z,21.70
2019-03-31T13:50:10.547Z,21.40
2019-03-31T13:52:36.731Z,21.40
2019-03-31T13:55:07.200Z,21.20
2019-03-31T13:57:33.403Z,21.40
2019-03-31T13:59:59.676Z,21.70
2019-03-31T14:02:25.847Z,22.10
2019-03-31T14:04:52.167Z,21.80
2019-03-31T14:07:18.430Z,21.30
2019-03-31T14:09:44.504Z,20.20
2019-03-31T14:12:10.615Z,20.00
2019-03-31T14:14:36.715Z,19.80
2019-03-31T14:17:02.941Z,19.70
2019-03-31T14:19:29.048Z,19.70
2019-03-31T14:21:55.174Z,19.60
2019-03-31T14:24:21.282Z,20.00
2019-03-31T14:26:47.859Z,20.00
2019-03-31T14:29:14.180Z,20.50
2019-03-31T14:31:40.303Z,20.90
2019-03-31T14:34:06.482Z,21.30
2019-03-31T14:36:32.606Z,21.60
2019-03-31T14:38:58.832Z,21.20
2019-03-31T14:41:25.028Z,20.70
2019-03-31T14:43:51.159Z,20.50
2019-03-31T14:46:19.655Z,20.90
2019-03-31T14:48:45.290Z,20.90
2019-03-31T14:51:11.435Z,21.80
2019-03-31T14:53:37.691Z,22.50
2019-03-31T14:56:03.877Z,23.30
2019-03-31T14:58:30.021Z,24.10
2019-03-31T15:00:56.243Z,24.60
2019-03-31T15:03:22.367Z,24.30
2019-03-31T15:05:48.532Z,23.20
2019-03-31T15:08:14.777Z,22.10
2019-03-31T15:10:41.033Z,21.40
2019-03-31T15:13:07.255Z,21.10
2019-03-31T15:15:33.515Z,20.70
2019-03-31T15:17:59.699Z,20.30
2019-03-31T15:20:26.288Z,19.80
2019-03-31T15:22:52.379Z,19.30
2019-03-31T15:25:18.493Z,18.80
2019-03-31T15:27:44.721Z,18.60
2019-03-31T15:30:11.566Z,18.20
2019-03-31T15:32:37.744Z,18.00
2019-03-31T15:35:05.428Z,17.90
2019-03-31T15:37:31.519Z,17.80
2019-03-31T15:39:57.605Z,17.90
2019-03-31T15:42:23.697Z,17.90
2019-03-31T15:44:49.836Z,17.80
2019-03-31T15:47:15.982Z,17.80
2019-03-31T15:49:42.207Z,17.70
2019-03-31T15:52:08.937Z,17.60
2019-03-31T15:54:35.282Z,17.70
2019-03-31T15:57:01.633Z,17.70
2019-03-31T15:59:27.736Z,17.80
2019-03-31T16:01:53.802Z,17.90
2019-03-31T16:04:19.902Z,18.00
2019-03-31T16:06:45.997Z,18.00
2019-03-31T16:09:22.803Z,18.00
2019-03-31T16:11:53.194Z,18.00
2019-03-31T16:14:08.156Z,17.90
2019-03-31T16:16:34.355Z,17.90
2019-03-31T16:19:00.466Z,17.80
2019-03-31T16:21:26.733Z,17.80
2019-03-31T16:23:52.931Z,17.70
2019-03-31T16:26:19.081Z,17.60
2019-03-31T16:28:45.162Z,17.50
2019-03-31T16:31:31.131Z,17.50
2019-03-31T16:33:57.375Z,17.40
2019-03-31T16:36:23.552Z,17.30
2019-03-31T16:38:49.687Z,17.10
2019-03-31T16:41:15.997Z,16.90
2019-03-31T16:43:42.082Z,16.80
2019-03-31T16:46:08.200Z,16.70
2019-03-31T16:48:34.316Z,16.60
2019-03-31T16:51:00.542Z,16.50
2019-03-31T16:53:26.742Z,16.40
2019-03-31T16:55:52.810Z,16.40
2019-03-31T16:58:18.956Z,16.20
2019-03-31T17:00:45.028Z,16.20
2019-03-31T17:03:11.189Z,16.20
2019-03-31T17:05:37.298Z,16.20
2019-03-31T17:08:03.540Z,16.20
2019-03-31T17:10:29.772Z,16.00
2019-03-31T17:12:55.922Z,16.10
2019-03-31T17:15:22.219Z,16.10
2019-03-31T17:17:48.343Z,16.00
2019-03-31T17:20:14.841Z,15.90
2019-03-31T17:22:40.962Z,15.90
2019-03-31T17:25:07.431Z,15.70
2019-03-31T17:27:33.731Z,15.60
2019-03-31T17:29:59.827Z,15.60
2019-03-31T17:32:25.977Z,15.40
2019-03-31T17:34:52.226Z,15.30
2019-03-31T17:37:18.480Z,15.20
2019-03-31T17:39:44.684Z,14.80
2019-03-31T17:42:10.792Z,14.80
2019-03-31T17:44:36.951Z,14.70
2019-03-31T17:47:03.310Z,14.60
2019-03-31T17:49:29.530Z,14.60
2019-03-31T17:51:55.770Z,14.60
2019-03-31T17:54:22.116Z,14.50
2019-03-31T17:56:48.355Z,14.40
2019-03-31T17:59:14.554Z,14.30
2019-03-31T18:01:40.801Z,14.00
2019-03-31T18:04:06.919Z,13.90
2019-03-31T18:06:33.111Z,13.90
2019-03-31T18:08:59.198Z,13.90
2019-03-31T18:11:25.298Z,13.80
2019-03-31T18:13:51.550Z,13.70
2019-03-31T18:16:17.723Z,13.60
2019-03-31T18:18:43.835Z,13.50
2019-03-31T18:21:09.983Z,13.40
2019-03-31T18:23:36.213Z,13.30
2019-03-31T18:26:02.392Z,13.20
2019-03-31T18:28:28.522Z,13.10
2019-03-31T18:30:54.753Z,13.00
2019-03-31T18:33:20.989Z,12.90
2019-03-31T18:35:47.236Z,12.90
2019-03-31T18:38:13.471Z,12.80
2019-03-31T18:40:39.826Z,13.00
2019-03-31T18:43:06.065Z,12.90
2019-03-31T18:45:32.287Z,12.90
2019-03-31T18:48:01.081Z,12.90
2019-03-31T18:50:26.470Z,12.70
2019-03-31T18:52:52.577Z,12.60
2019-03-31T18:55:37.467Z,12.50
2019-03-31T18:58:08.257Z,12.20
2019-03-31T19:00:39.022Z,12.30
2019-03-31T19:03:18.867Z,12.30
2019-03-31T19:06:03.751Z,12.10
2019-03-31T19:08:31.841Z,11.90
2019-03-31T19:11:02.677Z,11.90
2019-03-31T19:13:55.119Z,11.90
2019-03-31T19:16:17.276Z,11.90
2019-03-31T19:18:45.484Z,11.90
2019-03-31T19:21:13.692Z,11.80
2019-03-31T19:23:43.732Z,11.80
2019-03-31T19:26:22.695Z,11.70
2019-03-31T19:29:11.773Z,11.80
2019-03-31T19:31:43.474Z,11.80
2019-03-31T19:34:30.763Z,11.80
2019-03-31T19:37:16.135Z,11.70
2019-03-31T19:39:47.353Z,11.30
2019-03-31T19:42:15.841Z,11.20
2019-03-31T19:44:44.135Z,11.30
2019-03-31T19:47:12.247Z,11.30
2019-03-31T19:49:49.459Z,11.40
2019-03-31T19:52:17.630Z,11.50
2019-03-31T19:55:02.566Z,11.50
2019-03-31T19:57:33.450Z,11.50
2019-03-31T20:00:20.020Z,11.30
2019-03-31T20:03:00.153Z,11.20
2019-03-31T20:05:31.334Z,11.10
2019-03-31T20:08:16.125Z,11.00
2019-03-31T20:10:49.994Z,10.80
2019-03-31T20:13:18.015Z,10.90
2019-03-31T20:16:02.920Z,10.70
2019-03-31T20:18:31.140Z,10.70
2019-03-31T20:21:04.815Z,10.60
2019-03-31T20:23:49.602Z,10.60
2019-03-31T20:26:17.659Z,10.70
2019-03-31T20:28:45.846Z,10.50
2019-03-31T20:31:13.915Z,10.50
2019-03-31T20:33:57.198Z,10.50
2019-03-31T20:36:27.978Z,10.60
2019-03-31T20:38:59.127Z,10.50
2019-03-31T20:41:43.935Z,10.50
2019-03-31T20:44:10.089Z,10.60
2019-03-31T20:46:36.341Z,10.60
2019-03-31T20:49:02.865Z,10.50
2019-03-31T20:51:29.048Z,10.60
2019-03-31T20:53:55.248Z,10.50
2019-03-31T20:56:21.457Z,10.50
2019-03-31T20:58:47.550Z,10.50
2019-03-31T21:01:13.747Z,10.40
2019-03-31T21:03:39.884Z,10.30
2019-03-31T21:06:06.068Z,10.30
2019-03-31T21:08:32.187Z,10.10
2019-03-31T21:10:58.257Z,10.30
2019-03-31T21:13:24.590Z,10.20
2019-03-31T21:15:50.815Z,10.10
2019-03-31T21:18:17.020Z,10.10
2019-03-31T21:20:43.151Z,10.00
2019-03-31T21:23:09.333Z,10.10
2019-03-31T21:25:35.493Z,10.20
2019-03-31T21:28:01.830Z,10.00
2019-03-31T21:30:28.051Z,10.00
2019-03-31T21:32:54.231Z,10.00
2019-03-31T21:35:20.445Z,9.90
2019-03-31T21:37:46.570Z,9.90
2019-03-31T21:40:12.934Z,9.80
2019-03-31T21:42:39.091Z,9.70
2019-03-31T21:45:05.532Z,9.70
2019-03-31T21:47:31.625Z,9.60
2019-03-31T21:49:57.768Z,9.60
2019-03-31T21:52:23.961Z,9.60
2019-03-31T21:54:50.138Z,9.60
2019-03-31T21:57:16.205Z,9.60
2019-03-31T21:59:42.342Z,9.60
2019-03-31T22:02:08.470Z,9.70
2019-03-31T22:04:34.691Z,9.70
2019-03-31T22:07:00.801Z,9.70
2019-03-31T22:09:26.921Z,9.60
2019-03-31T22:11:53.111Z,9.60
2019-03-31T22:14:19.209Z,9.50
2019-03-31T22:16:45.336Z,9.50
2019-03-31T22:19:11.500Z,9.60
2019-03-31T22:21:37.666Z,9.50
2019-03-31T22:24:04.080Z,9.40
2019-03-31T22:26:30.264Z,9.40
2019-03-31T22:28:56.408Z,9.40
2019-03-31T22:31:22.572Z,9.30
2019-03-31T22:33:48.649Z,9.30
2019-03-31T22:36:20.461Z,9.40
2019-03-31T22:38:47.147Z,9.40
2019-03-31T22:41:13.274Z,9.20
2019-03-31T22:43:39.387Z,9.20
2019-03-31T22:46:05.606Z,9.10
2019-03-31T22:48:31.740Z,9.00
2019-03-31T22:50:57.914Z,9.10
2019-03-31T22:53:24.087Z,9.10
2019-03-31T22:55:50.369Z,9.10
2019-03-31T22:58:16.524Z,9.20
2019-03-31T23:00:42.698Z,9.10
2019-03-31T23:03:08.842Z,9.10
2019-03-31T23:05:35.033Z,9.00
2019-03-31T23:08:01.169Z,8.90
2019-03-31T23:10:27.245Z,8.90
2019-03-31T23:12:53.572Z,8.90
2019-03-31T23:15:19.788Z,8.90
2019-03-31T23:17:45.993Z,8.80
2019-03-31T23:20:12.280Z,8.70
2019-03-31T23:22:38.589Z,8.80
2019-03-31T23:25:05.229Z,8.80
2019-03-31T23:27:31.366Z,8.80
2019-03-31T23:29:57.589Z,8.60
2019-03-31T23:32:23.823Z,8.70
2019-03-31T23:34:49.945Z,8.80
2019-03-31T23:37:16.012Z,8.70
2019-03-31T23:39:42.141Z,8.70
2019-03-31T23:42:08.309Z,8.70
2019-03-31T23:44:34.559Z,8.70
2019-03-31T23:47:00.705Z,8.70
2019-03-31T23:49:26.933Z,8.50
2019-03-31T23:51:53.219Z,8.40
2019-03-31T23:54:19.301Z,8.40
2019-03-31T23:56:45.391Z,8.50
2019-03-31T23:59:11.515Z,8.60
